createdAt,value
2023-03-12T00:02:24.120Z,100220.41
2023-03-12T00:04:55.198Z,100222.19
2023-03-12T00:07:43.908Z,100224.63
2023-03-12T00:10:29.218Z,100234.50
2023-03-12T00:12:59.099Z,100241.06
2023-03-12T00:15:41.009Z,100239.78
2023-03-12T00:18:07.901Z,100248.34
2023-03-12T00:20:59.450Z,100249.09
2023-03-12T00:23:35.357Z,100259.44
2023-03-12T00:26:18.565Z,100259.28
2023-03-12T00:28:45.834Z,100266.34
2023-03-12T00:31:24.656Z,100267.25
2023-03-12T00:34:01.764Z,100270.34
2023-03-12T00:37:05.991Z,100272.19
2023-03-12T00:39:40.063Z,100281.00
2023-03-12T00:42:16.250Z,100275.56
2023-03-12T00:44:44.415Z,100289.81
2023-03-12T00:47:11.707Z,100290.56
2023-03-12T00:49:40.993Z,100291.25
2023-03-12T00:52:17.201Z,100284.75
2023-03-12T00:54:44.190Z,100291.78
2023-03-12T00:57:21.374Z,100298.28
2023-03-12T00:59:55.554Z,100297.19
2023-03-12T01:02:35.861Z,100303.84
2023-03-12T01:05:02.985Z,100301.47
2023-03-12T01:07:29.913Z,100303.66
2023-03-12T01:09:59.813Z,100313.13
2023-03-12T01:12:56.476Z,100318.94
2023-03-12T01:15:56.586Z,100314.06
2023-03-12T01:18:32.249Z,100328.69
2023-03-12T01:21:01.932Z,100326.81
2023-03-12T01:23:40.663Z,100336.59
2023-03-12T01:26:38.860Z,100333.75
2023-03-12T01:29:05.844Z,100343.44
2023-03-12T01:31:41.479Z,100337.16
2023-03-12T01:34:11.587Z,100338.94
2023-03-12T01:36:57.459Z,100329.66
2023-03-12T01:39:26.328Z,100340.31
2023-03-12T01:41:56.821Z,100351.91
2023-03-12T01:44:31.391Z,100352.84
2023-03-12T01:47:01.097Z,100362.31
2023-03-12T01:49:35.914Z,100363.00
2023-03-12T01:52:28.296Z,100357.50
2023-03-12T01:55:04.028Z,100366.47
2023-03-12T01:57:43.736Z,100365.06
2023-03-12T02:00:26.113Z,100371.00
2023-03-12T02:02:58.925Z,100376.34
2023-03-12T02:05:45.744Z,100375.50
2023-03-12T02:08:17.919Z,100371.72
2023-03-12T02:10:48.074Z,100378.25
2023-03-12T02:13:20.984Z,100380.03
2023-03-12T02:15:48.328Z,100376.41
2023-03-12T02:18:19.688Z,100383.09
2023-03-12T02:21:18.549Z,100382.69
2023-03-12T02:24:02.416Z,100394.56
2023-03-12T02:26:31.267Z,100397.09
2023-03-12T02:29:01.219Z,100398.13
2023-03-12T02:31:37.740Z,100396.84
2023-03-12T02:34:05.110Z,100406.06
2023-03-12T02:36:36.383Z,100405.88
2023-03-12T02:39:04.406Z,100407.03
2023-03-12T02:41:42.888Z,100404.69
2023-03-12T02:44:24.337Z,100413.69
2023-03-12T02:47:01.722Z,100430.47
2023-03-12T02:49:31.790Z,100429.38
2023-03-12T02:52:03.165Z,100433.47
2023-03-12T02:54:31.123Z,100434.84
2023-03-12T02:57:03.133Z,100455.53
2023-03-12T02:59:30.068Z,100450.28
2023-03-12T03:01:59.573Z,100445.50
2023-03-12T03:04:28.355Z,100471.09
2023-03-12T03:06:55.640Z,100480.38
2023-03-12T03:09:22.668Z,100496.16
2023-03-12T03:11:51.510Z,100492.28
2023-03-12T03:14:24.820Z,100494.84
2023-03-12T03:16:51.781Z,100498.22
2023-03-12T03:19:19.194Z,100510.88
2023-03-12T03:21:58.756Z,100517.38
2023-03-12T03:24:25.659Z,100517.81
2023-03-12T03:26:58.178Z,100520.97
2023-03-12T03:29:40.649Z,100528.22
2023-03-12T03:32:12.520Z,100528.63
2023-03-12T03:34:40.259Z,100532.00
2023-03-12T03:37:20.057Z,100545.75
2023-03-12T03:39:46.935Z,100545.75
2023-03-12T03:42:17.712Z,100542.69
2023-03-12T03:44:44.705Z,100538.31
2023-03-12T03:47:17.665Z,100537.50
2023-03-12T03:50:10.644Z,100539.88
2023-03-12T03:52:37.833Z,100547.22
2023-03-12T03:55:05.596Z,100537.09
2023-03-12T03:57:32.552Z,100539.97
2023-03-12T04:00:01.552Z,100541.63
2023-03-12T04:02:30.387Z,100541.38
2023-03-12T04:05:03.518Z,100543.56
2023-03-12T04:07:31.389Z,100546.22
2023-03-12T04:09:58.420Z,100557.78
2023-03-12T04:12:26.260Z,100554.03
2023-03-12T04:14:53.385Z,100562.28
2023-03-12T04:17:26.084Z,100564.72
2023-03-12T04:20:07.649Z,100566.34
2023-03-12T04:22:44.251Z,100573.53
2023-03-12T04:25:21.518Z,100582.81
2023-03-12T04:27:50.280Z,100586.00
2023-03-12T04:30:26.647Z,100590.16
2023-03-12T04:33:04.823Z,100596.03
2023-03-12T04:35:31.924Z,100600.00
2023-03-12T04:38:03.477Z,100605.78
2023-03-12T04:40:37.401Z,100615.47
2023-03-12T04:43:06.686Z,100612.25
2023-03-12T04:45:33.582Z,100622.81
2023-03-12T04:48:00.445Z,100628.56
2023-03-12T04:50:41.653Z,100624.88
2023-03-12T04:53:11.720Z,100635.09
2023-03-12T04:55:42.985Z,100644.03
2023-03-12T04:58:13.536Z,100645.94
2023-03-12T05:00:41.481Z,100658.84
2023-03-12T05:03:12.541Z,100670.53
2023-03-12T05:05:53.789Z,100674.38
2023-03-12T05:08:20.716Z,100679.47
2023-03-12T05:10:47.741Z,100678.63
2023-03-12T05:13:23.124Z,100678.91
2023-03-12T05:15:51.010Z,100681.66
2023-03-12T05:18:21.723Z,100675.72
2023-03-12T05:21:11.763Z,100674.72
2023-03-12T05:23:42.762Z,100688.66
2023-03-12T05:26:37.482Z,100688.59
2023-03-12T05:29:05.383Z,100699.47
2023-03-12T05:31:35.561Z,100701.97
2023-03-12T05:34:03.550Z,100701.91
2023-03-12T05:36:34.032Z,100707.50
2023-03-12T05:39:00.942Z,100705.72
2023-03-12T05:41:34.722Z,100710.63
2023-03-12T05:44:01.734Z,100721.22
2023-03-12T05:46:34.742Z,100717.59
2023-03-12T05:49:01.647Z,100720.28
2023-03-12T05:51:28.547Z,100718.78
2023-03-12T05:53:55.475Z,100720.97
2023-03-12T05:56:39.198Z,100725.66
2023-03-12T05:59:06.544Z,100726.63
2023-03-12T06:01:33.811Z,100738.84
2023-03-12T06:04:00.776Z,100745.28
2023-03-12T06:06:38.923Z,100744.66
2023-03-12T06:09:07.963Z,100746.00
2023-03-12T06:11:35.250Z,100748.94
2023-03-12T06:14:14.975Z,100759.25
2023-03-12T06:16:42.007Z,100759.34
2023-03-12T06:19:20.510Z,100758.91
2023-03-12T06:21:52.585Z,100774.00
2023-03-12T06:24:30.282Z,100781.41
2023-03-12T06:26:57.069Z,100780.41
2023-03-12T06:29:23.888Z,100787.25
2023-03-12T06:31:56.387Z,100787.09
2023-03-12T06:34:25.090Z,100796.50
2023-03-12T06:36:55.036Z,100793.59
2023-03-12T06:39:21.965Z,100801.47
2023-03-12T06:41:55.085Z,100810.25
2023-03-12T06:44:22.027Z,100812.34
2023-03-12T06:46:52.507Z,100817.34
2023-03-12T06:49:19.806Z,100825.25
2023-03-12T06:51:47.232Z,100831.41
2023-03-12T06:54:14.332Z,100826.09
2023-03-12T06:56:48.611Z,100825.53
2023-03-12T06:59:25.260Z,100830.84
2023-03-12T07:01:53.971Z,100840.91
2023-03-12T07:04:20.970Z,100844.41
2023-03-12T07:06:51.518Z,100839.69
2023-03-12T07:09:19.166Z,100841.25
2023-03-12T07:11:48.231Z,100848.59
2023-03-12T07:14:15.247Z,100851.06
2023-03-12T07:16:42.098Z,100856.47
2023-03-12T07:19:08.905Z,100859.00
2023-03-12T07:21:35.832Z,100856.59
2023-03-12T07:24:09.029Z,100862.31
2023-03-12T07:26:36.006Z,100858.16
2023-03-12T07:29:09.312Z,100864.84
2023-03-12T07:31:36.281Z,100864.97
2023-03-12T07:34:11.649Z,100874.09
2023-03-12T07:36:45.632Z,100890.22
2023-03-12T07:39:21.659Z,100891.59
2023-03-12T07:41:51.128Z,100891.53
2023-03-12T07:44:18.013Z,100897.50
2023-03-12T07:46:50.868Z,100901.56
2023-03-12T07:49:26.982Z,100909.75
2023-03-12T07:51:59.851Z,100922.28
2023-03-12T07:54:30.886Z,100923.84
2023-03-12T07:57:07.211Z,100915.78
2023-03-12T07:59:34.494Z,100916.06
2023-03-12T08:02:04.318Z,100920.19
2023-03-12T08:04:34.230Z,100913.47
2023-03-12T08:07:03.474Z,100917.31
2023-03-12T08:09:30.506Z,100921.38
2023-03-12T08:11:57.377Z,100914.97
2023-03-12T08:14:32.405Z,100930.69
2023-03-12T08:17:10.209Z,100921.16
2023-03-12T08:19:37.613Z,100916.00
2023-03-12T08:22:04.473Z,100910.38
2023-03-12T08:24:36.137Z,100918.09
2023-03-12T08:27:03.262Z,100921.41
2023-03-12T08:29:30.122Z,100927.34
2023-03-12T08:32:04.877Z,100934.31
2023-03-12T08:34:45.658Z,100939.91
2023-03-12T08:37:20.346Z,100950.38
2023-03-12T08:39:47.291Z,100958.72
2023-03-12T08:42:14.984Z,100963.91
2023-03-12T08:44:42.005Z,100975.56
2023-03-12T08:47:09.119Z,100984.13
2023-03-12T08:49:36.290Z,100980.09
2023-03-12T08:52:03.257Z,100983.97
2023-03-12T08:54:30.585Z,100979.03
2023-03-12T08:57:00.747Z,100990.34
2023-03-12T08:59:27.754Z,100992.75
2023-03-12T09:02:05.392Z,101001.66
2023-03-12T09:04:32.484Z,100998.59
2023-03-12T09:07:03.402Z,100997.22
2023-03-12T09:09:38.145Z,100994.22
2023-03-12T09:12:08.471Z,100997.84
2023-03-12T09:15:02.496Z,100994.00
2023-03-12T09:17:23.665Z,101001.69
2023-03-12T09:19:53.620Z,100998.53
2023-03-12T09:22:20.954Z,100993.00
2023-03-12T09:24:49.425Z,100995.75
2023-03-12T09:27:22.532Z,101000.91
2023-03-12T09:30:00.637Z,100992.56
2023-03-12T09:32:37.062Z,100991.38
2023-03-12T09:35:05.841Z,101002.56
2023-03-12T09:37:47.689Z,101000.69
2023-03-12T09:40:26.835Z,100998.31
2023-03-12T09:43:03.088Z,100998.53
2023-03-12T09:45:47.504Z,101001.75
2023-03-12T09:48:55.674Z,101008.66
2023-03-12T09:51:38.151Z,101001.63
2023-03-12T09:54:15.762Z,101001.25
2023-03-12T09:56:43.297Z,100991.78
2023-03-12T09:59:16.710Z,100989.97
2023-03-12T10:02:01.719Z,100986.22
2023-03-12T10:05:00.136Z,100984.16
2023-03-12T10:07:48.803Z,100987.09
2023-03-12T10:10:40.380Z,100984.22
2023-03-12T10:13:26.207Z,100989.28
2023-03-12T10:16:32.307Z,100988.00
2023-03-12T10:19:24.217Z,100998.38
2023-03-12T10:22:20.468Z,101002.50
2023-03-12T10:25:00.885Z,101005.31
2023-03-12T10:27:32.878Z,100998.50
2023-03-12T10:30:01.490Z,100992.84
2023-03-12T10:32:53.048Z,100993.13
2023-03-12T10:35:28.643Z,100991.56
2023-03-12T10:37:59.304Z,100992.28
2023-03-12T10:40:34.437Z,100979.69
2023-03-12T10:43:10.700Z,100987.84
2023-03-12T10:46:11.629Z,100988.81
2023-03-12T10:48:38.802Z,101001.88
2023-03-12T10:51:12.872Z,100998.59
2023-03-12T10:53:48.160Z,101000.81
2023-03-12T10:56:20.301Z,101001.56
2023-03-12T10:58:53.239Z,100999.66
2023-03-12T11:01:20.090Z,101005.88
2023-03-12T11:03:47.950Z,100997.13
2023-03-12T11:06:29.909Z,100995.09
2023-03-12T11:09:40.025Z,100990.63
2023-03-12T11:12:31.142Z,100995.97
2023-03-12T11:14:59.638Z,100999.81
2023-03-12T11:17:29.941Z,100997.75
2023-03-12T11:20:18.221Z,100989.72
2023-03-12T11:22:55.823Z,100990.66
2023-03-12T11:25:29.595Z,100999.50
2023-03-12T11:28:03.663Z,100985.91
2023-03-12T11:30:42.073Z,100992.13
2023-03-12T11:33:13.804Z,100996.31
2023-03-12T11:36:09.731Z,100993.88
2023-03-12T11:38:52.022Z,100998.09
2023-03-12T11:41:56.425Z,101000.44
2023-03-12T11:44:36.548Z,101003.81
2023-03-12T11:50:39.292Z,101002.56
2023-03-12T11:54:06.057Z,101000.13
2023-03-12T11:57:07.305Z,100993.88
2023-03-12T12:00:03.233Z,100983.69
2023-03-12T12:03:07.478Z,100983.53
2023-03-12T12:06:08.244Z,100976.56
2023-03-12T12:09:28.234Z,100986.13
2023-03-12T12:12:29.190Z,100979.75
2023-03-12T12:15:28.505Z,100985.31
2023-03-12T12:18:38.807Z,100974.16
2023-03-12T12:21:11.368Z,100972.66
2023-03-12T12:23:50.353Z,100973.91
2023-03-12T12:27:03.714Z,100978.22
2023-03-12T12:29:39.333Z,100971.84
2023-03-12T12:32:16.331Z,100966.75
2023-03-12T12:34:49.225Z,100967.19
2023-03-12T12:37:26.029Z,100964.91
2023-03-12T12:40:27.364Z,100960.53
2023-03-12T12:43:07.003Z,100960.09
2023-03-12T12:45:33.909Z,100955.66
2023-03-12T12:48:16.676Z,100948.00
2023-03-12T12:50:53.516Z,100952.63
2023-03-12T12:53:38.441Z,100946.84
2023-03-12T12:56:23.187Z,100956.13
2023-03-12T12:59:28.521Z,100952.81
2023-03-12T13:02:10.825Z,100966.38
2023-03-12T13:04:46.744Z,100969.47
2023-03-12T13:07:16.466Z,100964.41
2023-03-12T13:09:50.261Z,100962.69
2023-03-12T13:12:28.459Z,100964.91
2023-03-12T13:15:24.203Z,100964.81
2023-03-12T13:18:22.446Z,100956.50
2023-03-12T13:21:15.352Z,100961.25
2023-03-12T13:23:54.162Z,100961.38
2023-03-12T13:26:45.277Z,100963.78
2023-03-12T13:29:40.020Z,100955.38
2023-03-12T13:32:36.450Z,100956.06
2023-03-12T13:35:25.677Z,100959.53
2023-03-12T13:37:58.407Z,100965.78
2023-03-12T13:41:09.594Z,100969.84
2023-03-12T13:43:52.008Z,100967.00
2023-03-12T13:46:24.626Z,100974.25
2023-03-12T13:48:59.773Z,100982.78
2023-03-12T13:51:27.626Z,100989.13
2023-03-12T13:54:07.044Z,100995.34
2023-03-12T13:56:38.643Z,100985.19
2023-03-12T13:59:17.111Z,100982.44
2023-03-12T14:02:01.730Z,100990.66
2023-03-12T14:04:41.776Z,100985.78
2023-03-12T14:07:30.948Z,100986.84
2023-03-12T14:10:24.072Z,100979.88
2023-03-12T14:13:18.419Z,100976.59
2023-03-12T14:16:04.649Z,100972.66
2023-03-12T14:18:41.514Z,100976.91
2023-03-12T14:21:24.750Z,100978.09
2023-03-12T14:24:06.456Z,100988.47
2023-03-12T14:26:36.976Z,100982.81
2023-03-12T14:29:18.279Z,100973.47
2023-03-12T14:32:05.640Z,100980.75
2023-03-12T14:34:41.633Z,100978.22
2023-03-12T14:37:45.819Z,100979.75
2023-03-12T14:40:29.097Z,100985.31
2023-03-12T14:43:07.077Z,100976.16
2023-03-12T14:45:40.358Z,100970.50
2023-03-12T14:48:07.247Z,100973.63
2023-03-12T14:50:43.308Z,100973.38
2023-03-12T14:53:35.294Z,100981.44
2023-03-12T14:56:45.319Z,100974.75
2023-03-12T14:59:42.447Z,100975.81
2023-03-12T15:02:26.060Z,100967.50
2023-03-12T15:05:22.598Z,100970.28
2023-03-12T15:07:53.152Z,100975.91
2023-03-12T15:10:31.148Z,100974.13
2023-03-12T15:13:14.143Z,100966.91
2023-03-12T15:15:43.744Z,100970.66
2023-03-12T15:18:36.329Z,100965.97
2023-03-12T15:21:03.579Z,100971.94
2023-03-12T15:23:35.910Z,100972.91
2023-03-12T15:26:24.002Z,100980.41
2023-03-12T15:29:17.325Z,100981.25
2023-03-12T15:32:01.734Z,100975.09
2023-03-12T15:34:38.909Z,100975.22
2023-03-12T15:37:45.807Z,100975.47
2023-03-12T15:40:32.463Z,100975.47
2023-03-12T15:43:07.852Z,100980.03
2023-03-12T15:45:44.183Z,100980.06
2023-03-12T15:48:39.981Z,100973.75
2023-03-12T15:57:33.405Z,100995.59
2023-03-12T16:03:12.241Z,100994.72
2023-03-12T16:05:42.467Z,100993.94
2023-03-12T16:08:31.732Z,101003.16
2023-03-12T16:11:04.675Z,101003.84
2023-03-12T16:13:34.370Z,100994.16
2023-03-12T16:16:07.193Z,100986.41
2023-03-12T16:19:01.234Z,100989.09
2023-03-12T16:21:28.151Z,100997.75
2023-03-12T16:23:55.001Z,100998.72
2023-03-12T16:29:25.970Z,101002.56
2023-03-12T16:32:14.415Z,101007.13
2023-03-12T16:34:45.340Z,101013.59
2023-03-12T16:37:15.159Z,101014.59
2023-03-12T16:39:44.457Z,101020.72
2023-03-12T16:42:16.433Z,101036.38
2023-03-12T16:47:35.284Z,101031.06
2023-03-12T16:50:02.263Z,101045.03
2023-03-12T16:52:43.965Z,101051.34
2023-03-12T16:55:13.335Z,101058.53
2023-03-12T16:57:46.759Z,101059.16
2023-03-12T17:05:43.888Z,101075.41
2023-03-12T17:08:37.647Z,101072.81
2023-03-12T17:11:17.103Z,101073.47
2023-03-12T17:13:52.066Z,101081.72
2023-03-12T17:16:31.952Z,101073.78
2023-03-12T17:19:02.037Z,101082.63
2023-03-12T17:21:32.099Z,101073.72
2023-03-12T17:23:59.003Z,101088.00
2023-03-12T17:26:38.753Z,101093.41
2023-03-12T17:29:14.671Z,101086.09
2023-03-12T17:31:47.550Z,101096.97
2023-03-12T17:34:17.973Z,101102.38
2023-03-12T17:37:13.443Z,101104.31
2023-03-12T17:39:50.131Z,101110.63
2023-03-12T17:45:07.246Z,101117.34
2023-03-12T17:47:42.394Z,101126.75
2023-03-12T17:50:14.232Z,101127.81
2023-03-12T17:55:24.765Z,101141.28
2023-03-12T17:58:07.351Z,101150.66
2023-03-12T18:00:41.588Z,101154.09
2023-03-12T18:03:17.488Z,101153.19
2023-03-12T18:05:44.431Z,101161.03
2023-03-12T18:08:14.150Z,101165.78
2023-03-12T18:10:43.390Z,101166.03
2023-03-12T18:13:19.320Z,101163.75
2023-03-12T18:15:57.649Z,101171.25
2023-03-12T18:18:30.626Z,101179.00
2023-03-12T18:21:00.634Z,101193.53
2023-03-12T18:23:36.983Z,101208.06
2023-03-12T18:26:15.114Z,101208.47
2023-03-12T18:28:42.620Z,101215.03
2023-03-12T18:31:30.159Z,101220.66
2023-03-12T18:33:58.242Z,101218.09
2023-03-12T18:36:28.728Z,101225.75
2023-03-12T18:39:12.094Z,101236.53
2023-03-12T18:41:41.949Z,101241.38
2023-03-12T18:44:17.876Z,101246.78
2023-03-12T18:46:44.835Z,101252.59
2023-03-12T18:49:21.817Z,101255.13
2023-03-12T18:51:58.512Z,101260.28
2023-03-12T18:54:27.810Z,101268.91
2023-03-12T18:57:01.604Z,101270.38
2023-03-12T18:59:37.782Z,101273.47
2023-03-12T19:02:07.082Z,101272.06
2023-03-12T19:07:19.972Z,101273.38
2023-03-12T19:09:47.457Z,101271.03
2023-03-12T19:12:15.392Z,101276.25
2023-03-12T19:14:42.218Z,101287.84
2023-03-12T19:17:12.060Z,101287.06
2023-03-12T19:19:39.050Z,101290.47
2023-03-12T19:22:05.931Z,101295.59
2023-03-12T19:24:32.926Z,101287.69
2023-03-12T19:26:59.911Z,101293.81
2023-03-12T19:29:34.202Z,101296.28
2023-03-12T19:32:04.106Z,101297.97
2023-03-12T19:34:31.006Z,101291.44
2023-03-12T19:37:07.180Z,101293.13
2023-03-12T19:39:34.030Z,101294.13
2023-03-12T19:42:04.064Z,101296.16
2023-03-12T19:44:39.493Z,101307.16
2023-03-12T19:49:51.266Z,101310.13
2023-03-12T19:52:22.410Z,101304.50
2023-03-12T19:55:03.302Z,101304.00
2023-03-12T19:57:43.533Z,101311.28
2023-03-12T20:00:12.440Z,101306.88
2023-03-12T20:02:40.168Z,101317.13
2023-03-12T20:05:10.828Z,101317.53
2023-03-12T20:07:44.589Z,101312.50
2023-03-12T20:10:11.928Z,101308.69
2023-03-12T20:12:48.205Z,101316.41
2023-03-12T20:20:46.236Z,101317.31
2023-03-12T20:23:31.527Z,101321.94
2023-03-12T20:26:10.450Z,101322.66
2023-03-12T20:28:47.516Z,101335.59
2023-03-12T20:31:21.929Z,101328.97
2023-03-12T20:33:48.803Z,101340.69
2023-03-12T20:36:15.681Z,101335.00
2023-03-12T20:38:49.106Z,101336.63
2023-03-12T20:41:25.125Z,101342.94
2023-03-12T20:43:59.116Z,101337.44
2023-03-12T20:46:29.186Z,101329.00
2023-03-12T20:49:08.563Z,101331.16
2023-03-12T20:51:41.654Z,101334.47
2023-03-12T20:54:11.827Z,101341.50
2023-03-12T20:56:43.325Z,101348.31
2023-03-12T20:59:13.117Z,101353.41
2023-03-12T21:01:51.441Z,101357.81
2023-03-12T21:04:21.533Z,101361.94
2023-03-12T21:06:50.282Z,101373.53
2023-03-12T21:09:17.257Z,101373.50
2023-03-12T21:11:45.487Z,101376.25
2023-03-12T21:14:47.449Z,101374.44
2023-03-12T21:17:14.929Z,101363.91
2023-03-12T21:19:42.249Z,101368.66
2023-03-12T21:22:15.544Z,101361.44
2023-03-12T21:24:48.051Z,101357.75
2023-03-12T21:27:21.572Z,101354.91
2023-03-12T21:29:49.361Z,101359.28
2023-03-12T21:32:42.672Z,101360.25
2023-03-12T21:35:15.540Z,101357.66
2023-03-12T21:37:51.799Z,101356.34
2023-03-12T21:40:18.900Z,101361.53
2023-03-12T21:42:47.502Z,101357.53
2023-03-12T21:45:14.687Z,101370.22
2023-03-12T21:47:43.433Z,101365.91
2023-03-12T21:50:13.252Z,101359.84
2023-03-12T21:52:50.583Z,101368.00
2023-03-12T21:55:17.869Z,101367.53
2023-03-12T21:57:48.329Z,101369.75
2023-03-12T22:00:17.718Z,101373.47
2023-03-12T22:05:35.632Z,101364.63
2023-03-12T22:08:02.446Z,101362.94
2023-03-12T22:10:29.274Z,101364.00
2023-03-12T22:13:02.125Z,101358.50
2023-03-12T22:15:50.441Z,101366.97
2023-03-12T22:18:19.001Z,101381.94
2023-03-12T22:23:32.305Z,101388.31
2023-03-12T22:26:05.515Z,101393.94
2023-03-12T22:28:36.598Z,101387.66
2023-03-12T22:31:10.402Z,101379.00
2023-03-12T22:33:37.706Z,101382.34
2023-03-12T22:36:12.576Z,101380.00
2023-03-12T22:38:39.775Z,101368.66
2023-03-12T22:41:30.157Z,101359.88
2023-03-12T22:44:02.984Z,101357.72
2023-03-12T22:47:08.157Z,101364.41
2023-03-12T22:52:16.592Z,101366.38
2023-03-12T22:54:52.551Z,101378.84
2023-03-12T22:57:22.603Z,101389.84
2023-03-12T22:59:49.971Z,101382.38
2023-03-12T23:02:24.964Z,101382.47
2023-03-12T23:04:56.178Z,101384.66
2023-03-12T23:07:23.030Z,101392.88
2023-03-12T23:09:52.677Z,101393.88
2023-03-12T23:12:19.600Z,101401.09
2023-03-12T23:14:49.472Z,101400.19
2023-03-12T23:17:18.757Z,101395.03
2023-03-12T23:19:48.832Z,101400.31
2023-03-12T23:22:19.319Z,101399.53
2023-03-12T23:24:52.214Z,101411.75
2023-03-12T23:27:25.272Z,101412.63
2023-03-12T23:29:55.186Z,101414.44
2023-03-12T23:32:24.937Z,101409.94
2023-03-12T23:35:18.182Z,101414.38
2023-03-12T23:37:45.157Z,101408.31
2023-03-12T23:40:18.508Z,101412.47
2023-03-12T23:43:08.176Z,101409.94
2023-03-12T23:45:35.422Z,101405.63
2023-03-12T23:48:05.984Z,101420.44
2023-03-12T23:50:38.743Z,101416.88
2023-03-12T23:53:05.655Z,101430.78
2023-03-12T23:55:43.061Z,101417.75
2023-03-12T23:58:18.808Z,101422.22
